In Rescue
 
Open Full Screen Window  High Contrast Mode
Wind Gusting 16 knots
09
October 25, 2021 3:03 PM EDT
Present Weather: Light Drizzle
Weather Information
Wind Direction
  040 °
Wind Speed
  09 kt (10 mph)
Wind Gust
  16 kt (18 mph)
Altimeter
29.82 in
Visibility
10 SM
Temperature
09° C
48° F
Dewpoint
08° C
46° F
Humidity
94%
Sky Condition
Clear
VFR

METAR KCFS 251903Z AUTO 04009G16KT 10SM -DZ CLR 09/08 A2982 RMK AO2 T00880075

FAA Disclaimer: The data displayed is for advisory purposes only and is not to be used for flight planning or operations.